createdAt,value
2018-05-29T00:00:50.911Z,26.47
2018-05-29T00:01:50.914Z,26.54
2018-05-29T00:02:50.872Z,26.45
2018-05-29T00:03:51.035Z,26.53
2018-05-29T00:04:50.792Z,26.50
2018-05-29T00:05:50.787Z,26.54
2018-05-29T00:06:50.770Z,26.50
2018-05-29T00:07:50.727Z,26.49
2018-05-29T00:08:50.927Z,26.41
2018-05-29T00:09:50.731Z,26.41
2018-05-29T00:10:50.669Z,26.39
2018-05-29T00:11:50.614Z,26.35
2018-05-29T00:12:50.614Z,26.31
2018-05-29T00:13:50.816Z,26.22
2018-05-29T00:14:50.562Z,26.17
2018-05-29T00:15:50.601Z,26.17
2018-05-29T00:16:50.475Z,26.17
2018-05-29T00:17:50.531Z,26.23
2018-05-29T00:18:50.568Z,26.17
2018-05-29T00:19:50.744Z,26.06
2018-05-29T00:20:50.396Z,26.09
2018-05-29T00:21:50.416Z,26.03
2018-05-29T00:22:50.367Z,26.06
2018-05-29T00:23:50.363Z,26.06
2018-05-29T00:24:50.514Z,26.03
2018-05-29T00:25:50.267Z,26.00
2018-05-29T00:26:50.323Z,26.03
2018-05-29T00:27:50.236Z,25.89
2018-05-29T00:28:50.221Z,26.11
2018-05-29T00:29:50.184Z,26.00
2018-05-29T00:30:50.445Z,25.96
2018-05-29T00:31:50.125Z,26.00
2018-05-29T00:32:50.138Z,26.00
2018-05-29T00:33:50.135Z,25.97
2018-05-29T00:34:50.064Z,25.91
2018-05-29T00:35:50.170Z,25.89
2018-05-29T00:36:50.017Z,25.84
2018-05-29T00:37:50.398Z,25.79
2018-05-29T00:38:49.963Z,25.86
2018-05-29T00:39:49.942Z,25.91
2018-05-29T00:40:50.702Z,25.85
2018-05-29T00:41:49.870Z,25.85
2018-05-29T00:42:49.857Z,25.84
2018-05-29T00:43:49.842Z,25.81
2018-05-29T00:44:49.806Z,25.76
2018-05-29T00:45:49.989Z,25.74
2018-05-29T00:46:49.756Z,25.82
2018-05-29T00:47:49.736Z,25.84
2018-05-29T00:48:49.713Z,25.71
2018-05-29T00:49:49.726Z,25.66
2018-05-29T00:50:49.666Z,25.71
2018-05-29T00:51:49.836Z,25.63
2018-05-29T00:52:49.606Z,25.74
2018-05-29T00:53:49.597Z,25.63
2018-05-29T00:54:49.558Z,25.66
2018-05-29T00:55:49.535Z,25.52
2018-05-29T00:56:49.582Z,25.51
2018-05-29T00:57:49.693Z,25.59
2018-05-29T00:58:49.488Z,25.54
2018-05-29T00:59:49.461Z,25.62
2018-05-29T01:00:49.684Z,25.62
2018-05-29T01:01:49.477Z,25.57
2018-05-29T01:02:49.908Z,25.64
2018-05-29T01:03:49.516Z,25.48
2018-05-29T01:04:49.332Z,25.47
2018-05-29T01:05:49.308Z,25.56
2018-05-29T01:06:49.343Z,25.39
2018-05-29T01:07:49.258Z,25.41
2018-05-29T01:08:49.295Z,25.48
2018-05-29T01:09:49.563Z,25.45
2018-05-29T01:10:49.243Z,25.51
2018-05-29T01:11:49.242Z,25.56
2018-05-29T01:12:49.171Z,25.49
2018-05-29T01:13:49.719Z,25.47
2018-05-29T01:14:49.052Z,25.47
2018-05-29T01:15:49.231Z,25.52
2018-05-29T01:16:49.122Z,25.51
2018-05-29T01:17:49.019Z,25.42
2018-05-29T01:18:48.988Z,25.42
2018-05-29T01:19:48.929Z,25.56
2018-05-29T01:20:49.156Z,25.44
2018-05-29T01:21:49.415Z,25.45
2018-05-29T01:22:49.428Z,25.49
2018-05-29T01:23:49.468Z,25.48
2018-05-29T01:24:49.331Z,25.56
2018-05-29T01:25:48.991Z,25.49
2018-05-29T01:26:48.759Z,25.49
2018-05-29T01:27:49.322Z,25.44
2018-05-29T01:28:48.693Z,25.41
2018-05-29T01:29:49.276Z,25.49
2018-05-29T01:30:49.168Z,25.41
2018-05-29T01:31:48.889Z,25.42
2018-05-29T01:32:48.827Z,25.42
2018-05-29T01:33:48.615Z,25.41
2018-05-29T01:34:49.166Z,25.32
2018-05-29T01:35:48.583Z,25.41
2018-05-29T01:36:48.556Z,25.32
2018-05-29T01:37:48.803Z,25.42
2018-05-29T01:38:48.461Z,25.26
2018-05-29T01:39:48.473Z,25.42
2018-05-29T01:40:48.434Z,25.44
2018-05-29T01:41:48.484Z,25.34
2018-05-29T01:42:48.360Z,25.32
2018-05-29T01:43:48.534Z,25.37
2018-05-29T01:44:48.285Z,25.30
2018-05-29T01:45:48.330Z,25.27
2018-05-29T01:46:48.249Z,25.33
2018-05-29T01:47:48.214Z,25.29
2018-05-29T01:48:48.245Z,25.32
2018-05-29T01:49:48.998Z,25.34
2018-05-29T01:50:48.173Z,25.38
2018-05-29T01:51:48.138Z,25.38
2018-05-29T01:52:48.184Z,25.30
2018-05-29T01:53:48.119Z,25.33
2018-05-29T01:54:48.311Z,25.34
2018-05-29T01:55:48.034Z,25.38
2018-05-29T01:56:48.152Z,25.38
2018-05-29T01:57:48.016Z,25.37
2018-05-29T01:58:48.236Z,25.29
2018-05-29T01:59:48.248Z,25.34
2018-05-29T02:00:47.881Z,25.42
2018-05-29T02:01:47.915Z,25.38
2018-05-29T02:02:47.907Z,25.38
2018-05-29T02:03:47.841Z,25.32
2018-05-29T02:04:48.570Z,25.29
2018-05-29T02:05:47.904Z,25.32
2018-05-29T02:06:48.182Z,25.32
2018-05-29T02:07:47.699Z,25.39
2018-05-29T02:08:47.739Z,25.32
2018-05-29T02:09:47.666Z,25.26
2018-05-29T02:11:48.775Z,25.24
2018-05-29T02:12:47.645Z,25.27
2018-05-29T02:13:47.714Z,25.22
2018-05-29T02:14:47.600Z,25.20
2018-05-29T02:15:48.023Z,25.26
2018-05-29T02:16:47.796Z,25.22
2018-05-29T02:17:48.089Z,25.17
2018-05-29T02:18:47.452Z,25.22
2018-05-29T02:19:47.418Z,25.23
2018-05-29T02:20:47.460Z,25.19
2018-05-29T02:21:47.912Z,25.20
2018-05-29T02:22:47.661Z,25.17
2018-05-29T02:23:47.342Z,25.22
2018-05-29T02:24:47.303Z,25.23
2018-05-29T02:25:47.348Z,25.27
2018-05-29T02:26:47.681Z,25.24
2018-05-29T02:27:47.242Z,25.29
2018-05-29T02:28:47.470Z,25.26
2018-05-29T02:29:47.177Z,25.24
2018-05-29T02:30:47.297Z,25.29
2018-05-29T02:31:47.151Z,25.33
2018-05-29T02:32:47.210Z,25.24
2018-05-29T02:33:47.298Z,25.29
2018-05-29T02:34:47.124Z,25.27
2018-05-29T02:35:47.061Z,25.23
2018-05-29T02:36:48.252Z,25.20
2018-05-29T02:37:47.511Z,25.20
2018-05-29T02:38:47.135Z,25.23
2018-05-29T02:39:47.069Z,25.26
2018-05-29T02:40:46.860Z,25.27
2018-05-29T02:41:46.867Z,25.29
2018-05-29T02:42:46.965Z,25.29
2018-05-29T02:43:46.861Z,25.27
2018-05-29T02:44:47.011Z,25.29
2018-05-29T02:45:47.043Z,25.32
2018-05-29T02:46:46.724Z,25.24
2018-05-29T02:47:46.696Z,25.26
2018-05-29T02:48:46.617Z,25.30
2018-05-29T02:49:46.708Z,25.29
2018-05-29T02:50:46.854Z,25.26
2018-05-29T02:51:46.539Z,25.32
2018-05-29T02:52:46.571Z,25.27
2018-05-29T02:53:46.510Z,25.27
2018-05-29T02:54:46.491Z,25.30
2018-05-29T02:55:46.500Z,25.30
2018-05-29T02:56:46.662Z,25.32
2018-05-29T02:57:46.408Z,25.27
2018-05-29T02:58:46.427Z,25.29
2018-05-29T02:59:46.370Z,25.33
2018-05-29T03:00:46.349Z,25.29
2018-05-29T03:01:46.316Z,25.30
2018-05-29T03:02:46.502Z,25.33
2018-05-29T03:03:46.272Z,25.32
2018-05-29T03:04:46.226Z,25.30
2018-05-29T03:05:46.571Z,25.27
2018-05-29T03:06:46.180Z,25.30
2018-05-29T03:07:46.151Z,25.26
2018-05-29T03:08:46.341Z,25.26
2018-05-29T03:09:46.103Z,25.24
2018-05-29T03:10:46.064Z,25.20
2018-05-29T03:11:46.060Z,25.20
2018-05-29T03:12:46.082Z,25.26
2018-05-29T03:13:46.096Z,25.27
2018-05-29T03:14:46.154Z,25.26
2018-05-29T03:15:46.057Z,25.20
2018-05-29T03:16:45.939Z,25.29
2018-05-29T03:17:45.893Z,25.22
2018-05-29T03:18:45.935Z,25.20
2018-05-29T03:19:45.895Z,25.23
2018-05-29T03:20:46.018Z,25.15
2018-05-29T03:21:45.797Z,25.22
2018-05-29T03:22:45.792Z,25.14
2018-05-29T03:23:45.753Z,25.09
2018-05-29T03:24:45.703Z,25.19
2018-05-29T03:25:45.879Z,25.22
2018-05-29T03:26:45.719Z,25.20
2018-05-29T03:27:45.633Z,25.15
2018-05-29T03:28:45.624Z,25.23
2018-05-29T03:29:45.585Z,25.20
2018-05-29T03:30:46.266Z,25.14
2018-05-29T03:31:45.518Z,25.23
2018-05-29T03:32:45.504Z,25.07
2018-05-29T03:33:45.480Z,25.14
2018-05-29T03:34:45.440Z,25.07
2018-05-29T03:35:45.436Z,25.12
2018-05-29T03:36:45.591Z,25.07
2018-05-29T03:37:45.360Z,25.01
2018-05-29T03:38:45.346Z,25.12
2018-05-29T03:39:45.339Z,25.08
2018-05-29T03:40:45.289Z,25.07
2018-05-29T03:41:45.293Z,25.11
2018-05-29T03:42:45.450Z,25.14
2018-05-29T03:43:45.227Z,25.08
2018-05-29T03:44:45.241Z,25.15
2018-05-29T03:45:45.160Z,25.04
2018-05-29T03:46:45.176Z,25.08
2018-05-29T03:47:45.325Z,25.08
2018-05-29T03:48:45.161Z,25.17
2018-05-29T03:49:45.140Z,25.15
2018-05-29T03:50:45.070Z,25.14
2018-05-29T03:51:45.010Z,25.11
2018-05-29T03:52:45.132Z,25.15
2018-05-29T03:53:45.169Z,25.22
2018-05-29T03:54:44.931Z,25.26
2018-05-29T03:55:44.944Z,25.23
2018-05-29T03:56:44.893Z,25.15
2018-05-29T03:57:44.877Z,25.14
2018-05-29T03:58:44.883Z,25.11
2018-05-29T03:59:45.036Z,25.09
2018-05-29T04:00:44.822Z,25.09
2018-05-29T04:01:44.832Z,25.08
2018-05-29T04:02:44.904Z,25.11
2018-05-29T04:03:44.702Z,25.02
2018-05-29T04:04:45.001Z,25.12
2018-05-29T04:05:44.756Z,25.08
2018-05-29T04:06:44.617Z,25.01
2018-05-29T04:07:44.753Z,25.09
2018-05-29T04:08:44.655Z,25.07
2018-05-29T04:09:44.551Z,25.01
2018-05-29T04:10:44.718Z,25.04
2018-05-29T04:11:44.511Z,25.08
2018-05-29T04:12:44.469Z,25.08
2018-05-29T04:13:44.584Z,25.07
2018-05-29T04:14:44.417Z,25.02
2018-05-29T04:15:44.502Z,25.09
2018-05-29T04:16:44.565Z,25.08
2018-05-29T04:17:44.339Z,25.08
2018-05-29T04:18:44.322Z,25.02
2018-05-29T04:19:44.284Z,25.12
2018-05-29T04:20:44.252Z,25.04
2018-05-29T04:21:44.447Z,25.04
2018-05-29T04:22:44.249Z,25.00
2018-05-29T04:23:44.250Z,25.02
2018-05-29T04:24:44.303Z,24.96
2018-05-29T04:25:44.138Z,25.02
2018-05-29T04:26:44.102Z,25.00
2018-05-29T04:27:44.268Z,25.05
2018-05-29T04:28:44.042Z,25.02
2018-05-29T04:29:44.029Z,25.04
2018-05-29T04:30:43.989Z,25.00
2018-05-29T04:31:43.973Z,25.00
2018-05-29T04:32:43.932Z,25.00
2018-05-29T04:33:44.119Z,25.01
2018-05-29T04:34:43.883Z,25.04
2018-05-29T04:35:43.875Z,25.01
2018-05-29T04:36:43.840Z,24.97
2018-05-29T04:37:43.826Z,24.96
2018-05-29T04:38:44.006Z,25.01
2018-05-29T04:39:43.771Z,25.01
2018-05-29T04:40:43.746Z,25.08
2018-05-29T04:41:43.712Z,25.01
2018-05-29T04:42:43.744Z,25.01
2018-05-29T04:43:43.903Z,25.02
2018-05-29T04:44:43.625Z,25.09
2018-05-29T04:45:43.799Z,25.11
2018-05-29T04:46:43.590Z,25.00
2018-05-29T04:47:43.557Z,25.19
2018-05-29T04:48:43.980Z,25.01
2018-05-29T04:49:44.907Z,25.02
2018-05-29T04:50:45.284Z,25.08
2018-05-29T04:51:43.458Z,25.02
2018-05-29T04:52:43.430Z,25.02
2018-05-29T04:53:43.408Z,25.12
2018-05-29T04:54:43.391Z,25.01
2018-05-29T04:55:43.586Z,25.11
2018-05-29T04:56:43.351Z,25.07
2018-05-29T04:57:43.279Z,25.00
2018-05-29T04:58:43.367Z,25.05
2018-05-29T04:59:43.278Z,25.11
2018-05-29T05:00:43.220Z,25.05
2018-05-29T05:01:43.346Z,25.08
2018-05-29T05:02:43.159Z,25.11
2018-05-29T05:03:43.156Z,25.04
2018-05-29T05:04:43.122Z,25.05
2018-05-29T05:05:43.116Z,25.02
2018-05-29T05:06:43.056Z,25.01
2018-05-29T05:07:43.246Z,25.00
2018-05-29T05:08:43.008Z,25.04
2018-05-29T05:09:42.993Z,24.97
2018-05-29T05:10:42.973Z,25.01
2018-05-29T05:11:42.930Z,24.97
2018-05-29T05:12:43.116Z,24.94
2018-05-29T05:13:42.930Z,24.97
2018-05-29T05:14:42.848Z,24.94
2018-05-29T05:15:42.832Z,25.02
2018-05-29T05:16:42.811Z,25.00
2018-05-29T05:17:42.952Z,25.05
2018-05-29T05:18:42.740Z,25.00
2018-05-29T05:19:42.800Z,25.00
2018-05-29T05:20:42.751Z,25.02
2018-05-29T05:21:42.682Z,25.05
2018-05-29T05:22:42.842Z,25.11
2018-05-29T05:23:42.616Z,25.08
2018-05-29T05:24:42.576Z,25.07
2018-05-29T05:25:42.561Z,25.01
2018-05-29T05:26:42.626Z,25.01
2018-05-29T05:27:42.715Z,25.14
2018-05-29T05:28:42.476Z,25.07
2018-05-29T05:29:42.476Z,25.07
2018-05-29T05:30:42.477Z,25.05
2018-05-29T05:31:42.404Z,25.02
2018-05-29T05:32:42.392Z,25.09
2018-05-29T05:33:42.539Z,25.07
2018-05-29T05:34:42.341Z,25.02
2018-05-29T05:35:42.287Z,25.09
2018-05-29T05:36:42.266Z,25.09
2018-05-29T05:37:42.245Z,25.05
2018-05-29T05:38:42.228Z,25.02
2018-05-29T05:39:42.384Z,25.09
2018-05-29T05:40:42.175Z,25.02
2018-05-29T05:41:42.152Z,25.09
2018-05-29T05:42:42.115Z,25.02
2018-05-29T05:43:42.103Z,25.02
2018-05-29T05:44:42.106Z,25.00
2018-05-29T05:45:42.032Z,25.05
2018-05-29T05:46:42.012Z,25.07
2018-05-29T05:47:42.053Z,25.01
2018-05-29T05:48:41.957Z,25.00
2018-05-29T05:49:42.021Z,25.07
2018-05-29T05:50:41.892Z,25.12
2018-05-29T05:51:41.917Z,25.05
2018-05-29T05:52:41.872Z,25.05
2018-05-29T05:53:41.878Z,25.08
2018-05-29T05:54:41.849Z,25.08
2018-05-29T05:55:41.777Z,25.09
2018-05-29T05:56:41.731Z,25.02
2018-05-29T05:57:41.701Z,25.09
2018-05-29T05:58:41.717Z,25.01
2018-05-29T05:59:41.764Z,25.04
2018-05-29T06:00:41.640Z,25.07
2018-05-29T06:01:41.621Z,25.02
2018-05-29T06:02:41.614Z,25.02
2018-05-29T06:03:41.577Z,25.07
2018-05-29T06:04:41.639Z,25.02
2018-05-29T06:05:42.939Z,25.08
2018-05-29T06:06:43.354Z,25.09
2018-05-29T06:07:41.500Z,25.02
2018-05-29T06:08:41.441Z,25.12
2018-05-29T06:09:41.427Z,25.01
2018-05-29T06:10:41.423Z,25.01
2018-05-29T06:11:41.375Z,25.11
2018-05-29T06:12:41.340Z,25.00
2018-05-29T06:13:41.287Z,25.04
2018-05-29T06:14:41.291Z,25.02
2018-05-29T06:15:41.313Z,25.07
2018-05-29T06:16:41.241Z,25.02
2018-05-29T06:17:41.208Z,25.12
2018-05-29T06:18:41.163Z,25.08
2018-05-29T06:19:41.154Z,25.11
2018-05-29T06:20:41.208Z,25.00
2018-05-29T06:21:41.104Z,25.02
2018-05-29T06:22:41.065Z,25.07
2018-05-29T06:23:41.044Z,25.02
2018-05-29T06:24:41.024Z,25.01
2018-05-29T06:25:41.062Z,25.04
2018-05-29T06:26:40.967Z,25.01
2018-05-29T06:27:40.926Z,25.05
2018-05-29T06:28:40.899Z,25.02
2018-05-29T06:29:40.879Z,24.96
2018-05-29T06:30:40.907Z,25.08
2018-05-29T06:31:40.845Z,25.04
2018-05-29T06:32:40.815Z,25.04
2018-05-29T06:33:40.778Z,25.00
2018-05-29T06:34:40.774Z,24.97
2018-05-29T06:35:40.784Z,25.04
2018-05-29T06:36:40.699Z,25.05
2018-05-29T06:37:40.668Z,25.02
2018-05-29T06:38:40.656Z,25.00
2018-05-29T06:39:40.625Z,25.04
2018-05-29T06:40:40.684Z,24.97
2018-05-29T06:41:40.559Z,25.01
2018-05-29T06:42:40.535Z,24.96
2018-05-29T06:43:40.521Z,25.00
2018-05-29T06:44:40.474Z,25.02
2018-05-29T06:45:40.468Z,25.02
2018-05-29T06:46:40.526Z,25.05
2018-05-29T06:47:40.416Z,25.00
2018-05-29T06:48:40.399Z,25.00
2018-05-29T06:49:40.401Z,25.02
2018-05-29T06:50:40.325Z,25.00
2018-05-29T06:51:40.300Z,24.96
2018-05-29T06:52:40.329Z,25.00
2018-05-29T06:53:40.279Z,24.97
2018-05-29T06:54:40.281Z,25.00
2018-05-29T06:55:40.221Z,25.04
2018-05-29T06:56:40.173Z,25.04
2018-05-29T06:57:40.263Z,25.11
2018-05-29T06:58:40.115Z,25.02
2018-05-29T06:59:40.104Z,25.09
2018-05-29T07:00:40.075Z,24.97
2018-05-29T07:01:40.115Z,25.00
2018-05-29T07:02:40.064Z,25.00
2018-05-29T07:03:39.979Z,25.02
2018-05-29T07:04:39.950Z,25.00
2018-05-29T07:05:39.961Z,25.07
2018-05-29T07:06:39.901Z,25.07
2018-05-29T07:07:40.027Z,25.02
2018-05-29T07:08:39.881Z,24.97
2018-05-29T07:09:39.847Z,25.01
2018-05-29T07:10:39.813Z,25.04
2018-05-29T07:11:39.778Z,25.02
2018-05-29T07:12:39.799Z,25.02
2018-05-29T07:13:39.725Z,25.04
2018-05-29T07:14:39.759Z,24.97
2018-05-29T07:15:39.684Z,24.94
2018-05-29T07:16:39.648Z,24.97
2018-05-29T07:17:39.713Z,25.02
2018-05-29T07:18:39.599Z,25.02
2018-05-29T07:19:39.588Z,24.96
2018-05-29T07:20:39.539Z,24.94
2018-05-29T07:21:39.503Z,24.90
2018-05-29T07:22:39.473Z,24.93
2018-05-29T07:23:39.569Z,24.94
2018-05-29T07:24:39.482Z,25.01
2018-05-29T07:25:39.415Z,24.90
2018-05-29T07:26:39.397Z,24.89
2018-05-29T07:27:39.360Z,24.94
2018-05-29T07:28:39.357Z,24.94
2018-05-29T07:29:39.372Z,24.94
2018-05-29T07:30:39.293Z,24.93
2018-05-29T07:31:39.269Z,24.94
2018-05-29T07:32:39.225Z,24.92
2018-05-29T07:33:39.206Z,24.97
2018-05-29T07:34:39.239Z,24.92
2018-05-29T07:35:39.180Z,24.94
2018-05-29T07:36:39.118Z,24.93
2018-05-29T07:37:39.087Z,24.94
2018-05-29T07:38:39.084Z,24.96
2018-05-29T07:39:39.114Z,24.89
2018-05-29T07:40:39.010Z,24.93
2018-05-29T07:41:39.015Z,24.90
2018-05-29T07:42:38.955Z,24.89
2018-05-29T07:43:38.954Z,24.89
2018-05-29T07:44:38.977Z,24.89
2018-05-29T07:45:38.899Z,24.90
2018-05-29T07:46:38.867Z,24.86
2018-05-29T07:47:38.827Z,24.90
2018-05-29T07:48:38.810Z,24.94
2018-05-29T07:49:38.837Z,24.90
2018-05-29T07:50:38.757Z,24.90
2018-05-29T07:51:38.738Z,24.87
2018-05-29T07:52:38.691Z,24.86
2018-05-29T07:53:38.683Z,24.80
2018-05-29T07:54:38.686Z,24.80
2018-05-29T07:55:38.728Z,24.86
2018-05-29T07:56:38.608Z,24.85
2018-05-29T07:57:38.561Z,24.75
2018-05-29T07:58:38.553Z,24.85
2018-05-29T07:59:38.519Z,24.82
2018-05-29T08:00:38.593Z,24.82
2018-05-29T08:01:38.480Z,24.77
2018-05-29T08:02:38.489Z,24.78
2018-05-29T08:03:38.406Z,24.75
2018-05-29T08:04:38.411Z,24.80
2018-05-29T08:05:38.368Z,24.80
2018-05-29T08:06:38.433Z,24.74
2018-05-29T08:07:38.305Z,24.77
2018-05-29T08:08:38.292Z,24.80
2018-05-29T08:09:38.255Z,24.85
2018-05-29T08:10:38.254Z,24.78
2018-05-29T08:11:38.313Z,24.78
2018-05-29T08:12:38.181Z,24.78
2018-05-29T08:13:38.135Z,24.78
2018-05-29T08:14:38.116Z,24.82
2018-05-29T08:15:38.099Z,24.83
2018-05-29T08:16:38.107Z,24.78
2018-05-29T08:17:38.081Z,24.78
2018-05-29T08:18:38.038Z,24.77
2018-05-29T08:19:38.003Z,24.83
2018-05-29T08:20:37.956Z,24.78
2018-05-29T08:21:37.993Z,24.75
2018-05-29T08:22:37.971Z,24.80
2018-05-29T08:23:37.884Z,24.69
2018-05-29T08:24:37.859Z,24.71
2018-05-29T08:25:37.829Z,24.71
2018-05-29T08:26:37.925Z,24.77
2018-05-29T08:27:37.781Z,24.77
2018-05-29T08:28:37.748Z,24.71
2018-05-29T08:29:37.736Z,24.70
2018-05-29T08:30:37.708Z,24.71
2018-05-29T08:31:37.677Z,24.70
2018-05-29T08:32:37.756Z,24.75
2018-05-29T08:33:37.643Z,24.63
2018-05-29T08:34:37.590Z,24.69
2018-05-29T08:35:37.563Z,24.64
2018-05-29T08:36:37.548Z,24.64
2018-05-29T08:37:37.628Z,24.59
2018-05-29T08:38:37.482Z,24.63
2018-05-29T08:39:37.547Z,24.58
2018-05-29T08:40:37.441Z,24.67
2018-05-29T08:41:37.419Z,24.61
2018-05-29T08:42:37.396Z,24.59
2018-05-29T08:43:37.420Z,24.61
2018-05-29T08:44:37.330Z,24.52
2018-05-29T08:45:37.326Z,24.46
2018-05-29T08:46:37.285Z,24.49
2018-05-29T08:47:37.271Z,24.48
2018-05-29T08:48:37.282Z,24.45
2018-05-29T08:49:37.204Z,24.55
2018-05-29T08:50:37.190Z,24.49
2018-05-29T08:51:37.145Z,24.51
2018-05-29T08:52:37.131Z,24.45
2018-05-29T08:53:37.259Z,24.44
2018-05-29T08:54:37.056Z,24.40
2018-05-29T08:55:37.042Z,24.51
2018-05-29T08:56:37.029Z,24.34
2018-05-29T08:57:36.978Z,24.49
2018-05-29T08:58:37.096Z,24.36
2018-05-29T08:59:36.937Z,24.37
2018-05-29T09:00:36.897Z,24.34
2018-05-29T09:01:36.903Z,24.36
2018-05-29T09:02:36.875Z,24.36
2018-05-29T09:03:37.054Z,24.39
2018-05-29T09:04:36.851Z,24.44
2018-05-29T09:05:36.792Z,24.49
2018-05-29T09:06:36.756Z,24.42
2018-05-29T09:07:36.745Z,24.45
2018-05-29T09:08:36.744Z,24.45
2018-05-29T09:09:36.736Z,24.45
2018-05-29T09:10:36.645Z,24.42
2018-05-29T09:11:36.633Z,24.36
2018-05-29T09:12:36.650Z,24.45
2018-05-29T09:13:36.656Z,24.42
2018-05-29T09:14:36.631Z,24.45
2018-05-29T09:15:36.528Z,24.42
2018-05-29T09:16:36.480Z,24.37
2018-05-29T09:17:36.474Z,24.37
2018-05-29T09:18:36.479Z,24.42
2018-05-29T09:19:36.415Z,24.40
2018-05-29T09:20:36.495Z,24.52
2018-05-29T09:21:36.359Z,24.42
2018-05-29T09:22:36.322Z,24.42
2018-05-29T09:23:36.319Z,24.46
2018-05-29T09:24:36.290Z,24.51
2018-05-29T09:25:36.249Z,24.45
2018-05-29T09:26:36.367Z,24.44
2018-05-29T09:27:36.219Z,24.48
2018-05-29T09:28:36.168Z,24.55
2018-05-29T09:29:36.194Z,24.51
2018-05-29T09:30:36.111Z,24.48
2018-05-29T09:31:36.140Z,24.39
2018-05-29T09:32:36.081Z,24.45
2018-05-29T09:33:36.036Z,24.40
2018-05-29T09:34:36.014Z,24.42
2018-05-29T09:35:35.990Z,24.46
2018-05-29T09:36:36.084Z,24.45
2018-05-29T09:37:35.945Z,24.45
2018-05-29T09:38:35.923Z,24.42
2018-05-29T09:39:35.904Z,24.44
2018-05-29T09:40:35.860Z,24.39
2018-05-29T09:41:35.894Z,24.40
2018-05-29T09:42:35.888Z,24.39
2018-05-29T09:43:35.774Z,24.45
2018-05-29T09:44:35.768Z,24.45
2018-05-29T09:45:35.708Z,24.40
2018-05-29T09:46:35.691Z,24.45
2018-05-29T09:47:35.782Z,24.40
2018-05-29T09:48:35.646Z,24.42
2018-05-29T09:49:35.625Z,24.39
2018-05-29T09:50:35.581Z,24.39
2018-05-29T09:51:35.565Z,24.46
2018-05-29T09:52:35.577Z,24.46
2018-05-29T09:53:35.524Z,24.44
2018-05-29T09:54:35.502Z,24.54
2018-05-29T09:55:35.484Z,24.49
2018-05-29T09:56:35.423Z,24.48
2018-05-29T09:57:35.408Z,24.51
2018-05-29T09:58:35.482Z,24.55
2018-05-29T09:59:35.350Z,24.51
2018-05-29T10:00:35.322Z,24.52
2018-05-29T10:01:35.308Z,24.56
2018-05-29T10:02:35.258Z,24.61
2018-05-29T10:03:35.360Z,24.58
2018-05-29T10:04:35.220Z,24.66
2018-05-29T10:05:35.197Z,24.63
2018-05-29T10:06:35.160Z,24.64
2018-05-29T10:07:35.161Z,24.69
2018-05-29T10:08:35.190Z,24.58
2018-05-29T10:09:35.111Z,24.59
2018-05-29T10:10:35.070Z,24.67
2018-05-29T10:11:35.023Z,24.63
2018-05-29T10:12:35.046Z,24.69
2018-05-29T10:13:34.991Z,24.70
2018-05-29T10:14:35.002Z,24.69
2018-05-29T10:15:34.917Z,24.75
2018-05-29T10:16:34.892Z,24.74
2018-05-29T10:17:34.863Z,24.78
2018-05-29T10:18:34.850Z,24.77
2018-05-29T10:19:34.916Z,24.78
2018-05-29T10:20:34.786Z,24.82
2018-05-29T10:21:34.775Z,24.77
2018-05-29T10:22:34.752Z,24.78
2018-05-29T10:23:34.786Z,24.80
2018-05-29T10:24:34.763Z,24.78
2018-05-29T10:25:34.657Z,24.78
2018-05-29T10:26:34.650Z,24.74
2018-05-29T10:27:34.605Z,24.74
2018-05-29T10:28:34.586Z,24.69
2018-05-29T10:29:34.756Z,24.63
2018-05-29T10:30:34.525Z,24.69
2018-05-29T10:31:34.499Z,24.61
2018-05-29T10:32:34.559Z,24.69
2018-05-29T10:33:34.446Z,24.77
2018-05-29T10:34:34.433Z,24.67
2018-05-29T10:35:34.491Z,24.74
2018-05-29T10:36:34.368Z,24.67
2018-05-29T10:37:34.331Z,24.74
2018-05-29T10:38:34.310Z,24.78
2018-05-29T10:39:34.290Z,24.78
2018-05-29T10:40:34.286Z,24.82
2018-05-29T10:41:34.346Z,24.80
2018-05-29T10:42:34.199Z,24.75
2018-05-29T10:43:34.179Z,24.77
2018-05-29T10:44:34.161Z,24.90
2018-05-29T10:45:34.130Z,24.85
2018-05-29T10:46:34.095Z,24.90
2018-05-29T10:47:34.178Z,24.90
2018-05-29T10:48:34.045Z,24.94
2018-05-29T10:49:34.031Z,24.85
2018-05-29T10:50:33.995Z,24.92
2018-05-29T10:51:33.953Z,24.92
2018-05-29T10:52:34.026Z,24.89
2018-05-29T10:53:34.027Z,24.96
2018-05-29T10:54:33.922Z,24.94
2018-05-29T10:55:33.855Z,24.90
2018-05-29T10:56:33.834Z,24.96
2018-05-29T10:57:33.796Z,25.00
2018-05-29T10:58:33.885Z,25.01
2018-05-29T10:59:33.761Z,25.01
2018-05-29T11:00:33.773Z,25.02
2018-05-29T11:01:33.733Z,25.12
2018-05-29T11:02:33.684Z,25.02
2018-05-29T11:03:33.704Z,25.09
2018-05-29T11:04:33.677Z,25.11
2018-05-29T11:05:33.606Z,25.02
2018-05-29T11:06:33.572Z,25.07
2018-05-29T11:07:33.575Z,25.00
2018-05-29T11:08:33.621Z,25.09
2018-05-29T11:09:33.511Z,25.15
2018-05-29T11:10:33.465Z,25.05
2018-05-29T11:11:33.436Z,25.15
2018-05-29T11:12:33.409Z,25.00
2018-05-29T11:13:33.385Z,25.08
2018-05-29T11:14:33.468Z,25.02
2018-05-29T11:15:33.331Z,25.11
2018-05-29T11:16:33.302Z,25.20
2018-05-29T11:17:33.272Z,25.11
2018-05-29T11:18:33.248Z,25.07
2018-05-29T11:19:33.238Z,25.12
2018-05-29T11:20:33.294Z,25.22
2018-05-29T11:21:33.190Z,25.14
2018-05-29T11:22:33.168Z,25.27
2018-05-29T11:23:33.114Z,25.22
2018-05-29T11:24:33.095Z,25.20
2018-05-29T11:25:33.141Z,25.22
2018-05-29T11:26:33.112Z,25.19
2018-05-29T11:27:33.021Z,25.24
2018-05-29T11:28:33.011Z,25.14
2018-05-29T11:29:32.955Z,25.27
2018-05-29T11:30:32.945Z,25.26
2018-05-29T11:31:33.027Z,25.33
2018-05-29T11:32:32.901Z,25.27
2018-05-29T11:33:32.873Z,25.33
2018-05-29T11:34:32.850Z,25.33
2018-05-29T11:35:32.812Z,25.34
2018-05-29T11:36:32.878Z,25.38
2018-05-29T11:37:32.777Z,25.41
2018-05-29T11:38:32.750Z,25.39
2018-05-29T11:39:32.723Z,25.38
2018-05-29T11:40:32.695Z,25.45
2018-05-29T11:41:32.784Z,25.42
2018-05-29T11:42:32.686Z,25.47
2018-05-29T11:43:32.772Z,25.52
2018-05-29T11:44:32.574Z,25.59
2018-05-29T11:45:32.548Z,25.62
2018-05-29T11:46:32.627Z,25.57
2018-05-29T11:47:32.551Z,25.57
2018-05-29T11:48:32.839Z,25.64
2018-05-29T11:49:32.439Z,25.67
2018-05-29T11:50:32.519Z,25.70
2018-05-29T11:51:32.473Z,25.62
2018-05-29T11:52:32.545Z,25.75
2018-05-29T11:53:32.357Z,25.71
2018-05-29T11:54:32.338Z,25.84
2018-05-29T11:55:32.347Z,25.88
2018-05-29T11:56:32.268Z,25.94
2018-05-29T11:57:32.298Z,26.06
2018-05-29T11:58:32.279Z,26.22
2018-05-29T11:59:32.208Z,26.39
2018-05-29T12:00:32.200Z,26.49
2018-05-29T12:01:32.144Z,26.61
2018-05-29T12:02:32.113Z,26.44
2018-05-29T12:03:32.326Z,26.54
2018-05-29T12:04:32.075Z,26.96
2018-05-29T12:05:32.080Z,27.37
2018-05-29T12:06:32.049Z,28.36
2018-05-29T12:07:32.000Z,28.95
2018-05-29T12:08:32.276Z,29.75
2018-05-29T12:09:31.920Z,30.49
2018-05-29T12:10:31.894Z,31.10
2018-05-29T12:11:31.894Z,31.60
2018-05-29T12:12:31.881Z,31.78
2018-05-29T12:13:31.921Z,31.95
2018-05-29T12:14:31.794Z,32.32
2018-05-29T12:15:31.823Z,32.79
2018-05-29T12:16:31.746Z,32.75
2018-05-29T12:17:31.744Z,33.03
2018-05-29T12:18:31.802Z,33.50
2018-05-29T12:19:31.694Z,33.92
2018-05-29T12:20:31.649Z,34.24
2018-05-29T12:21:31.630Z,34.29
2018-05-29T12:22:31.581Z,33.99
2018-05-29T12:23:31.721Z,34.17
2018-05-29T12:24:31.547Z,34.06
2018-05-29T12:25:31.549Z,34.24
2018-05-29T12:26:31.543Z,34.45
2018-05-29T12:27:31.495Z,34.48
2018-05-29T12:28:31.541Z,34.52
2018-05-29T12:29:31.524Z,34.93
2018-05-29T12:30:31.398Z,35.05
2018-05-29T12:31:31.403Z,35.06
2018-05-29T12:32:31.362Z,35.33
2018-05-29T12:33:31.331Z,35.24
2018-05-29T12:34:31.325Z,35.31
2018-05-29T12:35:31.347Z,35.26
2018-05-29T12:36:31.272Z,34.93
2018-05-29T12:37:31.247Z,34.81
2018-05-29T12:38:31.229Z,34.91
2018-05-29T12:39:31.204Z,35.04
2018-05-29T12:40:31.290Z,35.08
2018-05-29T12:41:31.153Z,35.34
2018-05-29T12:42:31.129Z,35.42
2018-05-29T12:43:31.129Z,34.94
2018-05-29T12:44:31.111Z,34.87
2018-05-29T12:45:31.186Z,34.86
2018-05-29T12:46:31.062Z,33.84
2018-05-29T12:47:31.094Z,33.20
2018-05-29T12:48:31.010Z,32.94
2018-05-29T12:49:30.981Z,32.34
2018-05-29T12:50:31.061Z,31.63
2018-05-29T12:51:30.939Z,31.23
2018-05-29T12:52:30.911Z,30.96
2018-05-29T12:53:30.930Z,30.71